sensor_id;sensor_type;location;lat;lon;timestamp;temperature;humidity
36552;DHT22;22559;54.176;12.102;2023-03-26T00:00:37;7.70;99.90
36552;DHT22;22559;54.176;12.102;2023-03-26T00:03:05;7.70;99.90
36552;DHT22;22559;54.176;12.102;2023-03-26T00:05:30;7.70;99.90
36552;DHT22;22559;54.176;12.102;2023-03-26T00:07:57;7.70;99.90
36552;DHT22;22559;54.176;12.102;2023-03-26T00:10:23;7.60;99.90
36552;DHT22;22559;54.176;12.102;2023-03-26T00:12:50;7.70;99.90
36552;DHT22;22559;54.176;12.102;2023-03-26T00:15:16;7.70;99.90
36552;DHT22;22559;54.176;12.102;2023-03-26T00:17:41;7.70;99.90
36552;DHT22;22559;54.176;12.102;2023-03-26T00:20:11;7.70;99.90
36552;DHT22;22559;54.176;12.102;2023-03-26T00:22:38;7.70;99.90
36552;DHT22;22559;54.176;12.102;2023-03-26T00:25:05;7.70;99.90
36552;DHT22;22559;54.176;12.102;2023-03-26T00:27:31;7.70;99.90
36552;DHT22;22559;54.176;12.102;2023-03-26T00:29:58;7.70;99.90
36552;DHT22;22559;54.176;12.102;2023-03-26T00:32:28;7.70;99.90
36552;DHT22;22559;54.176;12.102;2023-03-26T00:34:56;7.80;99.90
36552;DHT22;22559;54.176;12.102;2023-03-26T00:37:23;7.80;99.90
36552;DHT22;22559;54.176;12.102;2023-03-26T00:39:55;7.80;99.90
36552;DHT22;22559;54.176;12.102;2023-03-26T00:42:24;7.80;99.90
36552;DHT22;22559;54.176;12.102;2023-03-26T00:44:50;7.70;99.90
36552;DHT22;22559;54.176;12.102;2023-03-26T00:47:22;7.80;99.90
36552;DHT22;22559;54.176;12.102;2023-03-26T00:49:48;7.80;99.90
36552;DHT22;22559;54.176;12.102;2023-03-26T00:52:15;7.80;99.90
36552;DHT22;22559;54.176;12.102;2023-03-26T00:54:46;7.80;99.90
36552;DHT22;22559;54.176;12.102;2023-03-26T00:57:13;7.70;99.90
36552;DHT22;22559;54.176;12.102;2023-03-26T00:59:39;7.70;99.90
36552;DHT22;22559;54.176;12.102;2023-03-26T01:02:06;7.70;99.90
36552;DHT22;22559;54.176;12.102;2023-03-26T01:04:35;7.70;99.90
36552;DHT22;22559;54.176;12.102;2023-03-26T01:07:13;7.70;99.90
36552;DHT22;22559;54.176;12.102;2023-03-26T01:09:43;7.70;99.90
36552;DHT22;22559;54.176;12.102;2023-03-26T01:12:18;7.80;99.90
36552;DHT22;22559;54.176;12.102;2023-03-26T01:14:50;7.80;99.90
36552;DHT22;22559;54.176;12.102;2023-03-26T01:17:16;7.80;99.90
36552;DHT22;22559;54.176;12.102;2023-03-26T01:19:59;7.80;99.90
36552;DHT22;22559;54.176;12.102;2023-03-26T01:22:30;7.70;99.90
36552;DHT22;22559;54.176;12.102;2023-03-26T01:24:55;7.70;99.90
36552;DHT22;22559;54.176;12.102;2023-03-26T01:27:34;7.70;99.90
36552;DHT22;22559;54.176;12.102;2023-03-26T01:30:05;7.70;99.90
36552;DHT22;22559;54.176;12.102;2023-03-26T01:41:15;7.80;99.90
36552;DHT22;22559;54.176;12.102;2023-03-26T01:43:52;7.80;99.90
36552;DHT22;22559;54.176;12.102;2023-03-26T01:46:19;7.90;99.90
36552;DHT22;22559;54.176;12.102;2023-03-26T01:48:47;7.90;99.90
36552;DHT22;22559;54.176;12.102;2023-03-26T01:51:25;7.80;99.90
36552;DHT22;22559;54.176;12.102;2023-03-26T01:53:52;7.90;99.90
36552;DHT22;22559;54.176;12.102;2023-03-26T02:01:47;7.90;99.90
36552;DHT22;22559;54.176;12.102;2023-03-26T02:04:37;7.90;99.90
36552;DHT22;22559;54.176;12.102;2023-03-26T02:09:47;7.90;99.90
36552;DHT22;22559;54.176;12.102;2023-03-26T02:12:15;7.90;99.90
36552;DHT22;22559;54.176;12.102;2023-03-26T02:14:42;7.90;99.90
36552;DHT22;22559;54.176;12.102;2023-03-26T02:17:09;7.90;99.90
36552;DHT22;22559;54.176;12.102;2023-03-26T02:19:39;7.90;99.90
36552;DHT22;22559;54.176;12.102;2023-03-26T02:22:08;7.90;99.90
36552;DHT22;22559;54.176;12.102;2023-03-26T02:24:39;7.90;99.90
36552;DHT22;22559;54.176;12.102;2023-03-26T02:27:05;7.90;99.90
36552;DHT22;22559;54.176;12.102;2023-03-26T02:29:35;7.80;99.90
36552;DHT22;22559;54.176;12.102;2023-03-26T02:32:08;7.80;99.90
36552;DHT22;22559;54.176;12.102;2023-03-26T02:34:38;7.80;99.90
36552;DHT22;22559;54.176;12.102;2023-03-26T02:37:04;7.80;99.90
36552;DHT22;22559;54.176;12.102;2023-03-26T02:39:29;7.80;99.90
36552;DHT22;22559;54.176;12.102;2023-03-26T02:41:55;7.80;99.90
36552;DHT22;22559;54.176;12.102;2023-03-26T02:44:20;7.80;99.90
36552;DHT22;22559;54.176;12.102;2023-03-26T02:46:46;7.80;99.90
36552;DHT22;22559;54.176;12.102;2023-03-26T02:49:12;7.80;99.90
36552;DHT22;22559;54.176;12.102;2023-03-26T02:51:37;7.80;99.90
36552;DHT22;22559;54.176;12.102;2023-03-26T02:54:03;7.80;99.90
36552;DHT22;22559;54.176;12.102;2023-03-26T02:56:31;7.80;99.90
36552;DHT22;22559;54.176;12.102;2023-03-26T02:58:57;7.80;99.90
36552;DHT22;22559;54.176;12.102;2023-03-26T03:01:23;7.80;99.90
36552;DHT22;22559;54.176;12.102;2023-03-26T03:03:48;7.70;99.90
36552;DHT22;22559;54.176;12.102;2023-03-26T03:06:15;7.70;99.90
36552;DHT22;22559;54.176;12.102;2023-03-26T03:08:44;7.70;99.90
36552;DHT22;22559;54.176;12.102;2023-03-26T03:11:17;7.70;99.90
36552;DHT22;22559;54.176;12.102;2023-03-26T03:13:46;7.70;99.90
36552;DHT22;22559;54.176;12.102;2023-03-26T03:16:12;7.70;99.90
36552;DHT22;22559;54.176;12.102;2023-03-26T03:18:38;7.70;99.90
36552;DHT22;22559;54.176;12.102;2023-03-26T03:21:04;7.70;99.90
36552;DHT22;22559;54.176;12.102;2023-03-26T03:23:30;7.70;99.90
36552;DHT22;22559;54.176;12.102;2023-03-26T03:25:56;7.60;99.90
36552;DHT22;22559;54.176;12.102;2023-03-26T03:28:23;7.60;99.90
36552;DHT22;22559;54.176;12.102;2023-03-26T03:30:49;7.60;99.90
36552;DHT22;22559;54.176;12.102;2023-03-26T03:33:19;7.50;99.90
36552;DHT22;22559;54.176;12.102;2023-03-26T03:35:46;7.50;99.90
36552;DHT22;22559;54.176;12.102;2023-03-26T03:38:13;7.40;99.90
36552;DHT22;22559;54.176;12.102;2023-03-26T03:40:39;7.40;99.90
36552;DHT22;22559;54.176;12.102;2023-03-26T03:43:04;7.40;99.90
36552;DHT22;22559;54.176;12.102;2023-03-26T03:45:30;7.40;99.90
36552;DHT22;22559;54.176;12.102;2023-03-26T03:47:56;7.50;99.90
36552;DHT22;22559;54.176;12.102;2023-03-26T03:50:21;7.50;99.90
36552;DHT22;22559;54.176;12.102;2023-03-26T03:52:47;7.50;99.90
36552;DHT22;22559;54.176;12.102;2023-03-26T03:55:13;7.60;99.90
36552;DHT22;22559;54.176;12.102;2023-03-26T03:57:39;7.60;99.90
36552;DHT22;22559;54.176;12.102;2023-03-26T04:00:06;7.50;99.90
36552;DHT22;22559;54.176;12.102;2023-03-26T04:02:34;7.50;99.90
36552;DHT22;22559;54.176;12.102;2023-03-26T04:05:01;7.50;99.90
36552;DHT22;22559;54.176;12.102;2023-03-26T04:07:28;7.50;99.90
36552;DHT22;22559;54.176;12.102;2023-03-26T04:09:57;7.40;99.90
36552;DHT22;22559;54.176;12.102;2023-03-26T04:12:26;7.40;99.90
36552;DHT22;22559;54.176;12.102;2023-03-26T04:14:52;7.40;99.90
36552;DHT22;22559;54.176;12.102;2023-03-26T04:17:18;7.40;99.90
36552;DHT22;22559;54.176;12.102;2023-03-26T04:19:46;7.40;99.90
36552;DHT22;22559;54.176;12.102;2023-03-26T04:22:12;7.40;99.90
36552;DHT22;22559;54.176;12.102;2023-03-26T04:24:37;7.40;99.90
36552;DHT22;22559;54.176;12.102;2023-03-26T04:27:05;7.40;99.90
36552;DHT22;22559;54.176;12.102;2023-03-26T04:29:37;7.40;99.90
36552;DHT22;22559;54.176;12.102;2023-03-26T04:32:14;7.30;99.90
36552;DHT22;22559;54.176;12.102;2023-03-26T04:34:44;7.30;99.90
36552;DHT22;22559;54.176;12.102;2023-03-26T04:37:24;7.30;99.90
36552;DHT22;22559;54.176;12.102;2023-03-26T04:39:52;7.40;99.90
36552;DHT22;22559;54.176;12.102;2023-03-26T04:42:18;7.30;99.90
36552;DHT22;22559;54.176;12.102;2023-03-26T04:44:46;7.30;99.90
36552;DHT22;22559;54.176;12.102;2023-03-26T04:47:17;7.30;99.90
36552;DHT22;22559;54.176;12.102;2023-03-26T04:49:45;7.30;99.90
36552;DHT22;22559;54.176;12.102;2023-03-26T04:52:12;7.40;99.90
36552;DHT22;22559;54.176;12.102;2023-03-26T04:54:39;7.40;99.90
36552;DHT22;22559;54.176;12.102;2023-03-26T04:57:11;7.40;99.90
36552;DHT22;22559;54.176;12.102;2023-03-26T04:59:38;7.30;99.90
36552;DHT22;22559;54.176;12.102;2023-03-26T05:02:06;7.30;99.90
36552;DHT22;22559;54.176;12.102;2023-03-26T05:04:33;7.30;99.90
36552;DHT22;22559;54.176;12.102;2023-03-26T05:07:01;7.20;99.90
36552;DHT22;22559;54.176;12.102;2023-03-26T05:09:27;7.20;99.90
36552;DHT22;22559;54.176;12.102;2023-03-26T05:11:53;7.20;99.90
36552;DHT22;22559;54.176;12.102;2023-03-26T05:14:19;7.20;99.90
36552;DHT22;22559;54.176;12.102;2023-03-26T05:16:46;7.10;99.90
36552;DHT22;22559;54.176;12.102;2023-03-26T05:19:12;7.10;99.90
36552;DHT22;22559;54.176;12.102;2023-03-26T05:21:38;7.10;99.90
36552;DHT22;22559;54.176;12.102;2023-03-26T05:24:04;7.10;99.90
36552;DHT22;22559;54.176;12.102;2023-03-26T05:26:31;7.10;99.90
36552;DHT22;22559;54.176;12.102;2023-03-26T05:28:57;7.10;99.90
36552;DHT22;22559;54.176;12.102;2023-03-26T05:31:24;7.10;99.90
36552;DHT22;22559;54.176;12.102;2023-03-26T05:33:51;7.10;99.90
36552;DHT22;22559;54.176;12.102;2023-03-26T05:36:17;7.10;99.90
36552;DHT22;22559;54.176;12.102;2023-03-26T05:38:43;7.10;99.90
36552;DHT22;22559;54.176;12.102;2023-03-26T05:41:14;7.10;99.90
36552;DHT22;22559;54.176;12.102;2023-03-26T05:43:40;7.10;99.90
36552;DHT22;22559;54.176;12.102;2023-03-26T05:46:06;7.10;99.90
36552;DHT22;22559;54.176;12.102;2023-03-26T05:48:32;7.20;99.90
36552;DHT22;22559;54.176;12.102;2023-03-26T05:50:58;7.20;99.90
36552;DHT22;22559;54.176;12.102;2023-03-26T05:53:25;7.20;99.90
36552;DHT22;22559;54.176;12.102;2023-03-26T05:55:51;7.20;99.90
36552;DHT22;22559;54.176;12.102;2023-03-26T05:58:26;7.10;99.90
36552;DHT22;22559;54.176;12.102;2023-03-26T06:01:11;6.90;99.90
36552;DHT22;22559;54.176;12.102;2023-03-26T06:03:42;6.70;99.90
36552;DHT22;22559;54.176;12.102;2023-03-26T06:06:11;6.60;99.90
36552;DHT22;22559;54.176;12.102;2023-03-26T06:08:48;6.50;99.90
36552;DHT22;22559;54.176;12.102;2023-03-26T06:11:16;6.40;99.90
36552;DHT22;22559;54.176;12.102;2023-03-26T06:13:42;6.40;99.90
36552;DHT22;22559;54.176;12.102;2023-03-26T06:16:12;6.40;99.90
36552;DHT22;22559;54.176;12.102;2023-03-26T06:18:38;6.40;99.90
36552;DHT22;22559;54.176;12.102;2023-03-26T06:21:05;6.40;99.90
36552;DHT22;22559;54.176;12.102;2023-03-26T06:23:31;6.40;99.90
36552;DHT22;22559;54.176;12.102;2023-03-26T06:25:57;6.40;99.90
36552;DHT22;22559;54.176;12.102;2023-03-26T06:28:23;6.40;99.90
36552;DHT22;22559;54.176;12.102;2023-03-26T06:30:49;6.40;99.90
36552;DHT22;22559;54.176;12.102;2023-03-26T06:33:15;6.40;99.90
36552;DHT22;22559;54.176;12.102;2023-03-26T06:35:42;6.40;99.90
36552;DHT22;22559;54.176;12.102;2023-03-26T06:38:09;6.50;99.90
36552;DHT22;22559;54.176;12.102;2023-03-26T06:40:35;6.50;99.90
36552;DHT22;22559;54.176;12.102;2023-03-26T06:43:01;6.50;99.90
36552;DHT22;22559;54.176;12.102;2023-03-26T06:45:27;6.50;99.90
36552;DHT22;22559;54.176;12.102;2023-03-26T06:47:53;6.50;99.90
36552;DHT22;22559;54.176;12.102;2023-03-26T06:50:19;6.40;99.90
36552;DHT22;22559;54.176;12.102;2023-03-26T06:52:44;6.40;99.90
36552;DHT22;22559;54.176;12.102;2023-03-26T06:55:11;6.30;99.90
36552;DHT22;22559;54.176;12.102;2023-03-26T06:57:37;6.30;99.90
36552;DHT22;22559;54.176;12.102;2023-03-26T07:00:04;6.30;99.90
36552;DHT22;22559;54.176;12.102;2023-03-26T07:02:30;6.40;99.90
36552;DHT22;22559;54.176;12.102;2023-03-26T07:04:56;6.40;99.90
36552;DHT22;22559;54.176;12.102;2023-03-26T07:07:21;6.50;99.90
36552;DHT22;22559;54.176;12.102;2023-03-26T07:09:49;6.60;99.90
36552;DHT22;22559;54.176;12.102;2023-03-26T07:12:15;6.60;99.90
36552;DHT22;22559;54.176;12.102;2023-03-26T07:14:41;6.60;99.90
36552;DHT22;22559;54.176;12.102;2023-03-26T07:17:06;6.60;99.90
36552;DHT22;22559;54.176;12.102;2023-03-26T07:19:32;6.60;99.90
36552;DHT22;22559;54.176;12.102;2023-03-26T07:21:58;6.60;99.90
36552;DHT22;22559;54.176;12.102;2023-03-26T07:24:24;6.60;99.90
36552;DHT22;22559;54.176;12.102;2023-03-26T07:27:36;6.60;99.90
36552;DHT22;22559;54.176;12.102;2023-03-26T07:29:54;6.70;99.90
36552;DHT22;22559;54.176;12.102;2023-03-26T07:35:29;7.00;99.90
36552;DHT22;22559;54.176;12.102;2023-03-26T07:38:23;7.10;99.90
36552;DHT22;22559;54.176;12.102;2023-03-26T07:45:52;7.00;99.90
36552;DHT22;22559;54.176;12.102;2023-03-26T07:48:24;7.00;99.90
36552;DHT22;22559;54.176;12.102;2023-03-26T07:50:54;7.00;99.90
36552;DHT22;22559;54.176;12.102;2023-03-26T07:53:21;7.00;99.90
36552;DHT22;22559;54.176;12.102;2023-03-26T07:56:01;7.10;99.90
36552;DHT22;22559;54.176;12.102;2023-03-26T08:01:11;7.00;99.90
36552;DHT22;22559;54.176;12.102;2023-03-26T08:06:38;6.90;99.90
36552;DHT22;22559;54.176;12.102;2023-03-26T08:19:28;6.90;99.90
36552;DHT22;22559;54.176;12.102;2023-03-26T08:22:18;6.90;99.90
36552;DHT22;22559;54.176;12.102;2023-03-26T08:27:39;7.20;99.90
36552;DHT22;22559;54.176;12.102;2023-03-26T08:30:16;7.20;99.90
36552;DHT22;22559;54.176;12.102;2023-03-26T08:32:48;7.30;99.90
36552;DHT22;22559;54.176;12.102;2023-03-26T08:35:17;7.20;99.90
36552;DHT22;22559;54.176;12.102;2023-03-26T08:37:42;7.30;99.90
36552;DHT22;22559;54.176;12.102;2023-03-26T08:40:10;7.20;99.90
36552;DHT22;22559;54.176;12.102;2023-03-26T08:56:52;7.40;99.90
36552;DHT22;22559;54.176;12.102;2023-03-26T09:16:45;7.50;99.90
36552;DHT22;22559;54.176;12.102;2023-03-26T09:25:27;7.50;99.90
36552;DHT22;22559;54.176;12.102;2023-03-26T09:28:20;7.60;99.90
36552;DHT22;22559;54.176;12.102;2023-03-26T09:34:39;8.10;99.90
36552;DHT22;22559;54.176;12.102;2023-03-26T09:40:16;7.80;99.90
36552;DHT22;22559;54.176;12.102;2023-03-26T09:42:47;7.70;99.90
36552;DHT22;22559;54.176;12.102;2023-03-26T09:45:35;7.70;99.90
36552;DHT22;22559;54.176;12.102;2023-03-26T09:48:14;7.70;99.90
36552;DHT22;22559;54.176;12.102;2023-03-26T09:56:48;7.70;99.90
36552;DHT22;22559;54.176;12.102;2023-03-26T10:06:06;7.90;99.90
36552;DHT22;22559;54.176;12.102;2023-03-26T10:10:54;7.90;99.90
36552;DHT22;22559;54.176;12.102;2023-03-26T10:16:31;7.90;99.90
36552;DHT22;22559;54.176;12.102;2023-03-26T10:19:01;7.90;99.90
36552;DHT22;22559;54.176;12.102;2023-03-26T10:29:24;8.00;99.90
36552;DHT22;22559;54.176;12.102;2023-03-26T10:32:03;8.10;99.90
36552;DHT22;22559;54.176;12.102;2023-03-26T10:34:49;8.00;99.90
36552;DHT22;22559;54.176;12.102;2023-03-26T10:53:59;8.30;99.90
36552;DHT22;22559;54.176;12.102;2023-03-26T10:56:48;8.10;99.90
36552;DHT22;22559;54.176;12.102;2023-03-26T10:59:16;8.90;99.90
36552;DHT22;22559;54.176;12.102;2023-03-26T11:12:50;10.30;99.90
36552;DHT22;22559;54.176;12.102;2023-03-26T11:15:23;10.70;99.90
36552;DHT22;22559;54.176;12.102;2023-03-26T11:34:01;11.10;99.90
36552;DHT22;22559;54.176;12.102;2023-03-26T11:36:33;11.30;99.90
36552;DHT22;22559;54.176;12.102;2023-03-26T11:39:04;11.00;99.90
36552;DHT22;22559;54.176;12.102;2023-03-26T11:41:33;10.40;99.90
36552;DHT22;22559;54.176;12.102;2023-03-26T11:44:24;10.10;99.90
36552;DHT22;22559;54.176;12.102;2023-03-26T11:46:55;10.00;99.90
36552;DHT22;22559;54.176;12.102;2023-03-26T11:49:26;9.80;99.90
36552;DHT22;22559;54.176;12.102;2023-03-26T11:51:53;9.80;99.90
36552;DHT22;22559;54.176;12.102;2023-03-26T11:54:19;9.60;99.90
36552;DHT22;22559;54.176;12.102;2023-03-26T11:56:54;9.40;99.90
36552;DHT22;22559;54.176;12.102;2023-03-26T11:59:30;9.30;99.90
36552;DHT22;22559;54.176;12.102;2023-03-26T12:02:21;9.20;99.90
36552;DHT22;22559;54.176;12.102;2023-03-26T12:04:52;9.00;99.90
36552;DHT22;22559;54.176;12.102;2023-03-26T12:07:33;9.00;99.90
36552;DHT22;22559;54.176;12.102;2023-03-26T12:10:04;9.10;99.90
36552;DHT22;22559;54.176;12.102;2023-03-26T12:12:35;9.00;99.90
36552;DHT22;22559;54.176;12.102;2023-03-26T12:15:04;9.10;99.90
36552;DHT22;22559;54.176;12.102;2023-03-26T12:17:31;9.10;99.90
36552;DHT22;22559;54.176;12.102;2023-03-26T12:19:58;9.10;99.90
36552;DHT22;22559;54.176;12.102;2023-03-26T12:22:38;9.10;99.90
36552;DHT22;22559;54.176;12.102;2023-03-26T12:32:48;9.30;99.90
36552;DHT22;22559;54.176;12.102;2023-03-26T12:35:17;9.60;99.90
36552;DHT22;22559;54.176;12.102;2023-03-26T12:37:44;10.40;99.90
36552;DHT22;22559;54.176;12.102;2023-03-26T12:40:28;11.00;99.90
36552;DHT22;22559;54.176;12.102;2023-03-26T12:42:57;11.60;99.90
36552;DHT22;22559;54.176;12.102;2023-03-26T12:45:36;11.90;99.90
36552;DHT22;22559;54.176;12.102;2023-03-26T12:48:02;12.10;99.90
36552;DHT22;22559;54.176;12.102;2023-03-26T12:51:16;12.30;99.90
36552;DHT22;22559;54.176;12.102;2023-03-26T12:53:44;12.00;99.90
36552;DHT22;22559;54.176;12.102;2023-03-26T13:15:52;11.10;99.90
36552;DHT22;22559;54.176;12.102;2023-03-26T13:21:19;10.70;99.90
36552;DHT22;22559;54.176;12.102;2023-03-26T13:29:19;10.80;99.90
36552;DHT22;22559;54.176;12.102;2023-03-26T13:34:50;11.50;99.90
36552;DHT22;22559;54.176;12.102;2023-03-26T13:37:28;11.90;99.90
36552;DHT22;22559;54.176;12.102;2023-03-26T13:40:00;12.20;99.90
36552;DHT22;22559;54.176;12.102;2023-03-26T13:47:53;12.50;99.90
36552;DHT22;22559;54.176;12.102;2023-03-26T13:50:29;12.70;99.90
36552;DHT22;22559;54.176;12.102;2023-03-26T13:53:04;13.20;99.90
36552;DHT22;22559;54.176;12.102;2023-03-26T13:55:43;13.30;99.90
36552;DHT22;22559;54.176;12.102;2023-03-26T13:58:22;13.80;99.90
36552;DHT22;22559;54.176;12.102;2023-03-26T14:01:11;13.90;99.90
36552;DHT22;22559;54.176;12.102;2023-03-26T14:03:54;14.00;99.90
36552;DHT22;22559;54.176;12.102;2023-03-26T14:09:45;13.50;99.90
36552;DHT22;22559;54.176;12.102;2023-03-26T14:15:03;14.00;99.90
36552;DHT22;22559;54.176;12.102;2023-03-26T14:17:36;14.20;99.90
36552;DHT22;22559;54.176;12.102;2023-03-26T14:28:31;13.50;99.90
36552;DHT22;22559;54.176;12.102;2023-03-26T14:31:32;13.20;99.90
36552;DHT22;22559;54.176;12.102;2023-03-26T14:37:01;13.20;99.90
36552;DHT22;22559;54.176;12.102;2023-03-26T14:53:32;11.40;99.90
36552;DHT22;22559;54.176;12.102;2023-03-26T14:56:14;10.80;99.90
36552;DHT22;22559;54.176;12.102;2023-03-26T15:13:40;12.30;99.90
36552;DHT22;22559;54.176;12.102;2023-03-26T15:49:07;12.60;99.90
36552;DHT22;22559;54.176;12.102;2023-03-26T15:51:54;12.50;99.90
36552;DHT22;22559;54.176;12.102;2023-03-26T15:54:28;12.50;99.90
36552;DHT22;22559;54.176;12.102;2023-03-26T15:57:01;12.40;99.90
36552;DHT22;22559;54.176;12.102;2023-03-26T16:10:08;12.10;99.90
36552;DHT22;22559;54.176;12.102;2023-03-26T16:12:55;11.40;99.90
36552;DHT22;22559;54.176;12.102;2023-03-26T16:15:39;10.90;99.90
36552;DHT22;22559;54.176;12.102;2023-03-26T16:26:15;8.90;99.90
36552;DHT22;22559;54.176;12.102;2023-03-26T16:41:51;8.20;99.90
36552;DHT22;22559;54.176;12.102;2023-03-26T16:47:34;8.00;99.90
36552;DHT22;22559;54.176;12.102;2023-03-26T16:50:09;7.80;99.90
36552;DHT22;22559;54.176;12.102;2023-03-26T16:52:49;7.60;99.90
36552;DHT22;22559;54.176;12.102;2023-03-26T17:00:53;7.20;99.90
36552;DHT22;22559;54.176;12.102;2023-03-26T17:03:52;7.20;99.90
36552;DHT22;22559;54.176;12.102;2023-03-26T17:09:01;7.30;99.90
36552;DHT22;22559;54.176;12.102;2023-03-26T17:11:42;7.30;99.90
36552;DHT22;22559;54.176;12.102;2023-03-26T17:17:08;7.30;99.90
36552;DHT22;22559;54.176;12.102;2023-03-26T17:25:36;7.10;99.90
36552;DHT22;22559;54.176;12.102;2023-03-26T17:28:20;7.10;99.90
36552;DHT22;22559;54.176;12.102;2023-03-26T17:31:19;7.10;99.90
36552;DHT22;22559;54.176;12.102;2023-03-26T17:33:48;7.00;99.90
36552;DHT22;22559;54.176;12.102;2023-03-26T17:41:11;6.90;99.90
36552;DHT22;22559;54.176;12.102;2023-03-26T17:43:45;6.70;99.90
36552;DHT22;22559;54.176;12.102;2023-03-26T17:56:50;6.20;99.90
36552;DHT22;22559;54.176;12.102;2023-03-26T17:59:20;6.20;99.90
36552;DHT22;22559;54.176;12.102;2023-03-26T18:01:56;6.20;99.90
36552;DHT22;22559;54.176;12.102;2023-03-26T18:04:37;6.10;99.90
36552;DHT22;22559;54.176;12.102;2023-03-26T18:13:29;6.00;99.90
36552;DHT22;22559;54.176;12.102;2023-03-26T18:18:39;5.80;99.90
36552;DHT22;22559;54.176;12.102;2023-03-26T18:21:08;5.80;99.90
36552;DHT22;22559;54.176;12.102;2023-03-26T18:23:39;5.80;99.90
36552;DHT22;22559;54.176;12.102;2023-03-26T18:26:20;6.00;99.90
36552;DHT22;22559;54.176;12.102;2023-03-26T18:29:08;6.10;99.90
36552;DHT22;22559;54.176;12.102;2023-03-26T18:31:35;6.10;99.90
36552;DHT22;22559;54.176;12.102;2023-03-26T18:34:11;6.10;99.90
36552;DHT22;22559;54.176;12.102;2023-03-26T18:36:37;6.10;99.90
36552;DHT22;22559;54.176;12.102;2023-03-26T18:39:03;6.10;99.90
36552;DHT22;22559;54.176;12.102;2023-03-26T18:41:31;6.10;99.90
36552;DHT22;22559;54.176;12.102;2023-03-26T18:44:04;6.10;99.90
36552;DHT22;22559;54.176;12.102;2023-03-26T18:46:32;6.00;99.90
36552;DHT22;22559;54.176;12.102;2023-03-26T18:49:00;5.90;99.90
36552;DHT22;22559;54.176;12.102;2023-03-26T18:51:27;6.00;99.90
36552;DHT22;22559;54.176;12.102;2023-03-26T18:53:56;5.80;99.90
36552;DHT22;22559;54.176;12.102;2023-03-26T18:56:30;5.80;99.90
36552;DHT22;22559;54.176;12.102;2023-03-26T18:58:59;5.70;99.90
36552;DHT22;22559;54.176;12.102;2023-03-26T19:01:30;5.80;99.90
36552;DHT22;22559;54.176;12.102;2023-03-26T19:04:01;5.70;99.90
36552;DHT22;22559;54.176;12.102;2023-03-26T19:06:33;5.70;99.90
36552;DHT22;22559;54.176;12.102;2023-03-26T19:09:04;5.70;99.90
36552;DHT22;22559;54.176;12.102;2023-03-26T19:11:36;5.70;99.90
36552;DHT22;22559;54.176;12.102;2023-03-26T19:14:13;5.70;99.90
36552;DHT22;22559;54.176;12.102;2023-03-26T19:16:40;5.70;99.90
36552;DHT22;22559;54.176;12.102;2023-03-26T19:19:14;5.70;99.90
36552;DHT22;22559;54.176;12.102;2023-03-26T19:21:41;5.70;99.90
36552;DHT22;22559;54.176;12.102;2023-03-26T19:24:07;5.70;99.90
36552;DHT22;22559;54.176;12.102;2023-03-26T19:26:33;5.70;99.90
36552;DHT22;22559;54.176;12.102;2023-03-26T19:29:02;5.70;99.90
36552;DHT22;22559;54.176;12.102;2023-03-26T19:31:33;5.70;99.90
36552;DHT22;22559;54.176;12.102;2023-03-26T19:34:00;5.70;99.90
36552;DHT22;22559;54.176;12.102;2023-03-26T19:36:29;5.80;99.90
36552;DHT22;22559;54.176;12.102;2023-03-26T19:41:25;5.80;99.90
36552;DHT22;22559;54.176;12.102;2023-03-26T19:43:56;5.70;99.90
36552;DHT22;22559;54.176;12.102;2023-03-26T19:46:24;5.70;99.90
36552;DHT22;22559;54.176;12.102;2023-03-26T19:48:52;5.70;99.90
36552;DHT22;22559;54.176;12.102;2023-03-26T19:51:24;5.70;99.90
36552;DHT22;22559;54.176;12.102;2023-03-26T19:53:58;5.60;99.90
36552;DHT22;22559;54.176;12.102;2023-03-26T19:56:25;5.60;99.90
36552;DHT22;22559;54.176;12.102;2023-03-26T19:58:52;5.60;99.90
36552;DHT22;22559;54.176;12.102;2023-03-26T20:01:24;5.60;99.90
36552;DHT22;22559;54.176;12.102;2023-03-26T20:03:53;5.60;99.90
36552;DHT22;22559;54.176;12.102;2023-03-26T20:06:21;5.60;99.90
36552;DHT22;22559;54.176;12.102;2023-03-26T20:08:47;5.60;99.90
36552;DHT22;22559;54.176;12.102;2023-03-26T20:11:28;5.60;99.90
36552;DHT22;22559;54.176;12.102;2023-03-26T20:13:58;5.60;99.90
36552;DHT22;22559;54.176;12.102;2023-03-26T20:16:30;5.60;99.90
36552;DHT22;22559;54.176;12.102;2023-03-26T20:18:56;5.60;99.90
36552;DHT22;22559;54.176;12.102;2023-03-26T20:21:26;5.50;99.90
36552;DHT22;22559;54.176;12.102;2023-03-26T20:23:52;5.40;99.90
36552;DHT22;22559;54.176;12.102;2023-03-26T20:26:21;5.40;99.90
36552;DHT22;22559;54.176;12.102;2023-03-26T20:28:47;5.30;99.90
36552;DHT22;22559;54.176;12.102;2023-03-26T20:31:15;5.20;99.90
36552;DHT22;22559;54.176;12.102;2023-03-26T20:33:42;5.20;99.90
36552;DHT22;22559;54.176;12.102;2023-03-26T20:36:10;5.20;99.90
36552;DHT22;22559;54.176;12.102;2023-03-26T20:38:38;5.20;99.90
36552;DHT22;22559;54.176;12.102;2023-03-26T20:41:04;5.10;99.90
36552;DHT22;22559;54.176;12.102;2023-03-26T20:43:30;5.00;99.90
36552;DHT22;22559;54.176;12.102;2023-03-26T20:45:55;4.90;99.90
36552;DHT22;22559;54.176;12.102;2023-03-26T20:48:24;5.00;99.90
36552;DHT22;22559;54.176;12.102;2023-03-26T20:50:52;4.80;99.90
36552;DHT22;22559;54.176;12.102;2023-03-26T20:53:18;4.70;99.90
36552;DHT22;22559;54.176;12.102;2023-03-26T20:55:45;4.70;99.90
36552;DHT22;22559;54.176;12.102;2023-03-26T20:58:16;4.60;99.90
36552;DHT22;22559;54.176;12.102;2023-03-26T21:00:43;4.60;99.90
36552;DHT22;22559;54.176;12.102;2023-03-26T21:03:14;4.60;99.90
36552;DHT22;22559;54.176;12.102;2023-03-26T21:05:41;4.60;99.90
36552;DHT22;22559;54.176;12.102;2023-03-26T21:08:13;4.60;99.90
36552;DHT22;22559;54.176;12.102;2023-03-26T21:10:39;4.60;99.90
36552;DHT22;22559;54.176;12.102;2023-03-26T21:15:43;4.50;99.90
36552;DHT22;22559;54.176;12.102;2023-03-26T21:18:09;4.50;99.90
36552;DHT22;22559;54.176;12.102;2023-03-26T21:20:35;4.50;99.90
36552;DHT22;22559;54.176;12.102;2023-03-26T21:26:15;4.50;99.90
36552;DHT22;22559;54.176;12.102;2023-03-26T21:28:47;4.50;99.90
36552;DHT22;22559;54.176;12.102;2023-03-26T21:31:18;4.40;99.90
36552;DHT22;22559;54.176;12.102;2023-03-26T21:33:46;4.30;99.90
36552;DHT22;22559;54.176;12.102;2023-03-26T21:36:12;4.20;99.90
36552;DHT22;22559;54.176;12.102;2023-03-26T21:38:39;4.20;99.90
36552;DHT22;22559;54.176;12.102;2023-03-26T21:41:05;4.10;99.90
36552;DHT22;22559;54.176;12.102;2023-03-26T21:43:30;4.00;99.90
36552;DHT22;22559;54.176;12.102;2023-03-26T21:45:57;3.90;99.90
36552;DHT22;22559;54.176;12.102;2023-03-26T21:48:23;3.90;99.90
36552;DHT22;22559;54.176;12.102;2023-03-26T21:50:49;3.80;99.90
36552;DHT22;22559;54.176;12.102;2023-03-26T21:53:15;3.80;99.90
36552;DHT22;22559;54.176;12.102;2023-03-26T22:06:49;3.60;99.90